Time;durP1;ratioP1;P1;durP2;ratioP2;P2;SDS_P1;SDS_P2;PMS_P1;PMS_P2;Temp;Humidity;BMP_temperature;BMP_pressure;BME280_temperature;BME280_humidity;BME280_pressure;Samples;Min_cycle;Max_cycle;Signal;HPM_P1;HPM_P2
2023/03/12 05:56:04;;;;;;;7.60;6.22;;;1.80;99.90;;;;;;5024211;23;20258;-77
2023/03/12 05:58:31;;;;;;;7.30;5.70;;;1.70;99.90;;;;;;5010721;28;20213;-76
2023/03/12 06:00:58;;;;;;;8.00;5.57;;;1.70;99.90;;;;;;4994685;28;20194;-76
2023/03/12 06:03:25;;;;;;;6.38;5.68;;;1.70;99.90;;;;;;4994436;28;20202;-76
2023/03/12 06:05:53;;;;;;;9.13;5.97;;;1.70;99.90;;;;;;4994253;28;20219;-75
2023/03/12 06:08:21;;;;;;;5.35;4.82;;;1.70;99.90;;;;;;5016828;23;21832;-73
2023/03/12 06:10:50;;;;;;;6.28;5.32;;;1.70;99.90;;;;;;4994191;28;20297;-72
2023/03/12 06:13:18;;;;;;;5.13;4.47;;;1.70;99.90;;;;;;4993970;28;20661;-74
2023/03/12 06:15:44;;;;;;;5.57;4.90;;;1.80;99.90;;;;;;4993922;28;20248;-72
2023/03/12 06:18:11;;;;;;;5.55;5.03;;;1.80;99.90;;;;;;4993981;28;20253;-71
2023/03/12 06:20:38;;;;;;;4.65;4.25;;;1.80;99.90;;;;;;4994198;28;20203;-72
2023/03/12 06:23:04;;;;;;;5.10;4.55;;;1.80;99.90;;;;;;4994383;28;20211;-71
2023/03/12 06:25:31;;;;;;;5.07;4.65;;;1.90;99.90;;;;;;4993827;28;20206;-71
2023/03/12 06:27:58;;;;;;;5.15;4.65;;;1.90;99.90;;;;;;4993914;28;20226;-71
2023/03/12 06:30:26;;;;;;;5.20;4.70;;;1.90;99.90;;;;;;4996739;28;20233;-71
2023/03/12 06:32:53;;;;;;;8.20;6.68;;;2.00;99.90;;;;;;4997935;28;20643;-71
2023/03/12 06:35:20;;;;;;;6.88;5.93;;;2.10;99.90;;;;;;4997415;28;20620;-72
2023/03/12 06:37:47;;;;;;;6.65;5.97;;;2.10;99.90;;;;;;4997975;28;20195;-72
2023/03/12 06:40:14;;;;;;;9.27;6.53;;;2.20;99.90;;;;;;4997706;28;20219;-74
2023/03/12 06:42:40;;;;;;;8.20;6.75;;;2.20;99.90;;;;;;4997765;28;20198;-72
2023/03/12 06:45:08;;;;;;;9.25;6.85;;;2.20;99.90;;;;;;4997707;28;20211;-72
2023/03/12 06:47:36;;;;;;;7.07;5.95;;;2.20;99.90;;;;;;4997617;28;20581;-73
2023/03/12 06:50:03;;;;;;;7.05;5.95;;;2.20;99.90;;;;;;4997715;28;20230;-72
2023/03/12 06:52:30;;;;;;;8.05;6.30;;;2.20;99.90;;;;;;4997578;28;20272;-72
2023/03/12 06:54:57;;;;;;;8.05;6.50;;;2.20;99.90;;;;;;4997501;28;20210;-72
2023/03/12 06:57:23;;;;;;;8.50;6.40;;;2.30;99.90;;;;;;4997532;28;20202;-72
2023/03/12 06:59:50;;;;;;;9.60;7.57;;;2.40;99.90;;;;;;4997387;28;20218;-73
2023/03/12 07:02:17;;;;;;;9.27;7.22;;;2.30;99.90;;;;;;4997395;28;20630;-73
2023/03/12 07:04:45;;;;;;;8.48;7.30;;;2.40;99.90;;;;;;4997117;28;20210;-73
2023/03/12 07:07:12;;;;;;;8.18;6.78;;;2.40;99.90;;;;;;4997382;28;20207;-73
2023/03/12 07:09:38;;;;;;;9.48;7.00;;;2.40;99.90;;;;;;4997052;28;20321;-73
2023/03/12 07:12:06;;;;;;;8.27;6.60;;;2.50;99.90;;;;;;4997285;28;20198;-72
2023/03/12 07:14:32;;;;;;;7.88;6.20;;;2.60;99.90;;;;;;4997982;28;20550;-72
2023/03/12 07:17:00;;;;;;;9.02;6.97;;;2.70;99.90;;;;;;4997171;28;20287;-74
2023/03/12 07:19:28;;;;;;;8.13;7.00;;;2.90;99.90;;;;;;4997592;28;20238;-73
2023/03/12 07:21:57;;;;;;;7.13;6.28;;;2.90;99.90;;;;;;4997107;28;20199;-73
2023/03/12 07:24:23;;;;;;;8.20;6.78;;;3.00;99.90;;;;;;4996707;28;20206;-74
2023/03/12 07:26:50;;;;;;;6.90;6.20;;;3.10;99.90;;;;;;4996821;28;20226;-73
2023/03/12 07:29:17;;;;;;;8.15;5.68;;;3.10;99.90;;;;;;4996792;28;20222;-73
2023/03/12 07:31:43;;;;;;;6.88;6.22;;;3.20;99.90;;;;;;4996593;28;20600;-74
2023/03/12 07:34:10;;;;;;;12.48;7.63;;;3.20;99.90;;;;;;4996836;28;20214;-74
2023/03/12 07:36:37;;;;;;;9.32;7.28;;;3.30;99.90;;;;;;4996679;28;20210;-74
2023/03/12 07:39:05;;;;;;;10.23;7.25;;;3.60;99.90;;;;;;4996615;28;20589;-74
2023/03/12 07:41:32;;;;;;;10.10;8.32;;;4.30;99.90;;;;;;4996074;28;20225;-73
2023/03/12 07:43:58;;;;;;;9.05;8.15;;;4.70;99.90;;;;;;4996704;28;20203;-74
2023/03/12 07:46:25;;;;;;;10.57;8.75;;;5.80;99.90;;;;;;4997505;28;20215;-74
2023/03/12 07:48:52;;;;;;;9.48;7.88;;;;;;;;;;4996631;28;20233;-73
2023/03/12 07:51:19;;;;;;;9.63;7.70;;;8.10;99.90;;;;;;4996410;28;20207;-73
2023/03/12 07:53:45;;;;;;;6.78;5.95;;;8.50;99.90;;;;;;4996670;28;20202;-73
2023/03/12 07:56:13;;;;;;;7.15;6.50;;;8.80;99.90;;;;;;4996200;28;20609;-74
2023/03/12 07:58:40;;;;;;;6.47;5.68;;;8.80;99.90;;;;;;4996323;28;20273;-72
2023/03/12 08:01:07;;;;;;;7.18;6.47;;;8.50;99.90;;;;;;4996332;28;20203;-72
2023/03/12 08:03:33;;;;;;;7.30;5.90;;;8.10;99.90;;;;;;4996339;28;20576;-72
2023/03/12 08:06:02;;;;;;;6.18;5.55;;;7.60;99.90;;;;;;4996354;28;20202;-73
2023/03/12 08:08:30;;;;;;;7.22;6.53;;;7.20;99.90;;;;;;4996362;28;20300;-73
2023/03/12 08:10:58;;;;;;;8.63;7.40;;;6.80;99.90;;;;;;4998807;28;20191;-74
2023/03/12 08:13:26;;;;;;;8.25;6.90;;;6.40;99.90;;;;;;4998071;28;20202;-74
2023/03/12 08:15:53;;;;;;;7.60;6.88;;;6.20;99.90;;;;;;4998572;28;20214;-74
2023/03/12 08:18:21;;;;;;;6.72;5.90;;;6.10;99.90;;;;;;4997045;28;20588;-73
2023/03/12 08:20:50;;;;;;;6.38;5.80;;;6.00;99.90;;;;;;4996728;28;20214;-72
2023/03/12 08:23:17;;;;;;;7.28;6.38;;;5.90;99.90;;;;;;4996742;28;20242;-72
2023/03/12 08:25:45;;;;;;;6.65;6.00;;;6.00;99.90;;;;;;4995658;28;20594;-71
2023/03/12 08:28:12;;;;;;;7.20;6.32;;;6.00;99.90;;;;;;4995462;28;20227;-72
2023/03/12 08:30:40;;;;;;;7.85;6.05;;;6.10;99.90;;;;;;4995731;28;20207;-71
2023/03/12 08:33:06;;;;;;;7.10;6.40;;;6.20;99.90;;;;;;4995675;28;20276;-71
2023/03/12 08:35:33;;;;;;;6.78;6.05;;;6.30;99.90;;;;;;4995527;28;20234;-71
2023/03/12 08:38:00;;;;;;;6.97;6.35;;;6.30;99.90;;;;;;4995555;28;20257;-71
2023/03/12 08:40:27;;;;;;;6.53;5.93;;;6.20;99.90;;;;;;4995416;28;20289;-72
2023/03/12 08:42:53;;;;;;;6.68;5.97;;;6.30;99.90;;;;;;4995400;28;20207;-71
2023/03/12 08:45:20;;;;;;;6.15;5.60;;;6.30;99.90;;;;;;4995375;28;20202;-72
2023/03/12 08:47:49;;;;;;;6.75;6.15;;;6.40;99.90;;;;;;4994888;28;20764;-71
2023/03/12 08:50:16;;;;;;;9.70;7.45;;;6.50;99.90;;;;;;4995024;28;20229;-71
2023/03/12 08:52:44;;;;;;;12.18;8.50;;;6.60;99.90;;;;;;4994309;28;20202;-71
2023/03/12 08:55:11;;;;;;;10.98;7.60;;;6.70;99.90;;;;;;4995648;28;20205;-71
2023/03/12 08:57:38;;;;;;;9.00;6.47;;;6.90;99.90;;;;;;4995023;28;20225;-72
2023/03/12 09:00:11;;;;;;;7.00;6.30;;;7.20;99.90;;;;;;4995019;28;20226;-70
2023/03/12 09:02:38;;;;;;;6.45;5.85;;;7.50;99.90;;;;;;4994823;28;20626;-70
2023/03/12 09:05:07;;;;;;;5.80;5.28;;;7.70;99.90;;;;;;4995041;28;20574;-70
2023/03/12 09:07:34;;;;;;;4.78;4.38;;;8.00;99.90;;;;;;4994941;28;20230;-70
2023/03/12 09:10:01;;;;;;;4.80;4.47;;;8.20;99.90;;;;;;4994588;28;20238;-71
2023/03/12 09:12:27;;;;;;;4.57;4.18;;;8.60;99.90;;;;;;4994795;28;20206;-73
2023/03/12 09:15:02;;;;;;;3.55;3.35;;;8.80;99.90;;;;;;5091433;27;20549;-72
2023/03/12 09:17:29;;;;;;;3.00;2.85;;;8.90;99.90;;;;;;5090911;28;20192;-73
2023/03/12 09:19:56;;;;;;;3.75;3.40;;;9.20;99.90;;;;;;5090819;28;20314;-72
2023/03/12 09:22:22;;;;;;;3.67;3.47;;;9.40;99.90;;;;;;5090996;28;20202;-72
2023/03/12 09:24:49;;;;;;;2.70;2.58;;;9.60;99.90;;;;;;5091076;28;20195;-71
2023/03/12 09:27:16;;;;;;;2.67;2.58;;;9.80;99.90;;;;;;5091036;28;20202;-72
2023/03/12 09:29:43;;;;;;;2.70;2.60;;;10.00;99.90;;;;;;5090882;28;20230;-73
2023/03/12 09:32:11;;;;;;;3.08;2.70;;;10.00;99.90;;;;;;5090853;28;20627;-70
2023/03/12 09:34:37;;;;;;;2.40;2.20;;;10.20;99.90;;;;;;5090618;28;20621;-71
2023/03/12 09:37:04;;;;;;;2.40;2.30;;;10.50;99.90;;;;;;5090700;28;20210;-71
2023/03/12 09:39:31;;;;;;;3.45;2.40;;;10.60;99.90;;;;;;5090627;28;20226;-71
2023/03/12 09:41:57;;;;;;;2.75;2.55;;;10.70;99.90;;;;;;5090694;28;20196;-70
2023/03/12 09:44:32;;;;;;;2.03;1.92;;;10.80;99.90;;;;;;5090622;28;20260;-71
2023/03/12 09:47:04;;;;;;;3.92;1.60;;;10.70;99.90;;;;;;5090562;28;20184;-71
2023/03/12 09:49:37;;;;;;;1.70;1.70;;;10.80;99.90;;;;;;5090425;28;20223;-71
2023/03/12 09:52:11;;;;;;;1.23;1.23;;;10.80;99.90;;;;;;5090416;28;20191;-72
2023/03/12 09:54:44;;;;;;;2.30;2.10;;;10.80;99.90;;;;;;5089996;28;20728;-72
2023/03/12 09:57:16;;;;;;;1.83;1.73;;;10.70;99.90;;;;;;5090384;28;20184;-72
2023/03/12 09:59:42;;;;;;;1.35;1.33;;;10.60;99.90;;;;;;5090388;28;20226;-72
2023/03/12 10:02:32;;;;;;;1.90;1.80;;;10.60;99.90;;;;;;5090051;28;20203;-71
2023/03/12 10:05:05;;;;;;;1.55;1.45;;;10.50;99.90;;;;;;5090244;28;20204;-72
2023/03/12 10:07:37;;;;;;;2.05;1.90;;;10.50;99.90;;;;;;5090438;28;20191;-71
2023/03/12 10:10:16;;;;;;;1.70;1.60;;;10.40;99.90;;;;;;5090179;28;20261;-72
2023/03/12 10:12:57;;;;;;;1.25;1.15;;;10.50;99.90;;;;;;5090061;28;20183;-67
2023/03/12 10:15:38;;;;;;;1.35;1.33;;;10.60;99.90;;;;;;5090011;28;20250;-70
2023/03/12 10:18:18;;;;;;;1.25;1.25;;;10.50;99.90;;;;;;5089645;28;20587;-71
2023/03/12 10:21:02;;;;;;;1.17;1.17;;;10.40;99.90;;;;;;5089858;28;20195;-70
2023/03/12 10:23:39;;;;;;;0.90;0.90;;;10.40;99.90;;;;;;5089820;28;20228;-70
2023/03/12 10:26:13;;;;;;;0.98;0.98;;;10.30;99.90;;;;;;5077877;28;20188;-70
2023/03/12 10:28:44;;;;;;;0.95;0.93;;;10.20;99.90;;;;;;5076172;28;20239;-70
2023/03/12 10:31:18;;;;;;;0.90;0.90;;;10.20;99.90;;;;;;5076120;28;20192;-70
2023/03/12 10:33:48;;;;;;;0.80;0.80;;;10.10;99.90;;;;;;5076061;28;20219;-70
2023/03/12 10:36:19;;;;;;;1.88;1.15;;;10.00;99.90;;;;;;5076040;28;20215;-69
2023/03/12 10:38:48;;;;;;;1.58;0.90;;;9.80;99.90;;;;;;5076006;28;20265;-71
2023/03/12 10:41:22;;;;;;;1.88;0.80;;;9.80;99.90;;;;;;5075603;28;20612;-70
2023/03/12 10:43:49;;;;;;;1.58;0.90;;;9.70;99.90;;;;;;5075959;28;20179;-70
2023/03/12 10:46:38;;;;;;;1.10;0.80;;;9.70;99.90;;;;;;5075985;28;20207;-70
2023/03/12 10:49:30;;;;;;;1.25;1.13;;;9.70;99.90;;;;;;5075644;28;20227;-71
2023/03/12 10:52:00;;;;;;;1.00;1.00;;;9.60;99.90;;;;;;5075894;28;20599;-70
2023/03/12 10:54:30;;;;;;;1.63;1.35;;;9.60;99.90;;;;;;5075502;28;20200;-71
2023/03/12 10:56:57;;;;;;;1.80;1.27;;;9.50;99.90;;;;;;5075778;28;20230;-72
2023/03/12 10:59:28;;;;;;;1.25;1.25;;;9.50;99.90;;;;;;5075923;28;20266;-72
2023/03/12 11:01:55;;;;;;;1.20;1.20;;;9.40;99.90;;;;;;5075487;28;20647;-72
2023/03/12 11:04:24;;;;;;;0.90;0.90;;;9.30;99.90;;;;;;5075645;28;20265;-72
2023/03/12 11:07:17;;;;;;;0.90;0.90;;;9.30;99.90;;;;;;5076397;28;20200;-69
2023/03/12 11:09:44;;;;;;;2.35;1.40;;;9.20;99.90;;;;;;5075499;28;20220;-70
2023/03/12 11:12:24;;;;;;;1.45;1.10;;;9.10;99.90;;;;;;5074904;28;20207;-69
2023/03/12 11:14:51;;;;;;;0.70;0.70;;;9.10;99.90;;;;;;5074953;28;20227;-68
2023/03/12 11:17:22;;;;;;;1.00;1.00;;;9.10;99.90;;;;;;5074958;28;20721;-68
2023/03/12 11:19:49;;;;;;;1.13;1.00;;;9.10;99.90;;;;;;5074947;28;20231;-69
2023/03/12 11:22:27;;;;;;;0.85;0.70;;;9.20;99.90;;;;;;5075044;28;20233;-68
2023/03/12 11:24:59;;;;;;;1.27;0.90;;;9.30;99.90;;;;;;5075260;28;20191;-68
2023/03/12 11:27:36;;;;;;;0.60;0.60;;;9.40;99.90;;;;;;5075107;28;20291;-67
2023/03/12 11:30:05;;;;;;;0.95;0.75;;;9.40;99.90;;;;;;5075149;28;20227;-74
2023/03/12 11:32:35;;;;;;;1.17;0.82;;;9.40;99.90;;;;;;5074965;28;20239;-73
2023/03/12 11:35:03;;;;;;;1.05;0.77;;;9.60;99.90;;;;;;5074552;28;20597;-72
2023/03/12 11:37:42;;;;;;;0.70;0.70;;;9.90;99.90;;;;;;5073669;28;20250;-68
2023/03/12 11:40:18;;;;;;;3.33;1.00;;;10.10;99.90;;;;;;5075155;28;20223;-72
2023/03/12 11:42:56;;;;;;;0.70;0.70;;;10.20;99.90;;;;;;5074258;28;20297;-72
2023/03/12 11:45:29;;;;;;;1.02;0.93;;;10.40;99.90;;;;;;5074319;28;20627;-69
2023/03/12 11:48:07;;;;;;;2.58;1.00;;;10.50;99.90;;;;;;5074104;28;20607;-69
2023/03/12 11:50:43;;;;;;;1.50;0.80;;;10.60;99.90;;;;;;5074495;28;20183;-70
2023/03/12 11:53:27;;;;;;;0.80;0.80;;;10.60;99.90;;;;;;5074451;28;20187;-69
2023/03/12 11:56:07;;;;;;;0.68;0.68;;;10.70;99.90;;;;;;5074313;28;20199;-69
2023/03/12 11:58:49;;;;;;;0.70;0.70;;;10.80;99.90;;;;;;5074322;28;20224;-69
2023/03/12 12:01:24;;;;;;;1.15;0.65;;;10.70;99.90;;;;;;5073961;28;20570;-72
2023/03/12 12:04:33;;;;;;;0.98;0.65;;;10.70;99.90;;;;;;5073989;28;20195;-72
2023/03/12 12:07:08;;;;;;;2.00;1.00;;;10.60;99.90;;;;;;5052509;28;20273;-72
2023/03/12 12:09:44;;;;;;;1.73;1.10;;;10.50;99.90;;;;;;5075317;28;20223;-73
2023/03/12 12:12:21;;;;;;;1.98;0.70;;;10.60;99.90;;;;;;5074081;28;20187;-74
2023/03/12 12:15:06;;;;;;;1.25;0.90;;;10.70;99.90;;;;;;5073361;28;20224;-74
2023/03/12 12:17:45;;;;;;;0.80;0.80;;;10.70;99.90;;;;;;5073865;28;20241;-74
2023/03/12 12:20:25;;;;;;;1.10;0.75;;;10.70;99.90;;;;;;5073705;28;20223;-74
2023/03/12 12:23:01;;;;;;;1.48;0.82;;;10.90;99.90;;;;;;5073770;28;20216;-72
2023/03/12 12:25:38;;;;;;;1.40;0.77;;;11.00;99.90;;;;;;5074277;28;20180;-74
2023/03/12 12:28:25;;;;;;;0.70;0.70;;;11.10;99.90;;;;;;5073740;28;20524;-74
2023/03/12 12:31:06;;;;;;;0.60;0.60;;;11.10;99.90;;;;;;5073704;28;20180;-74
2023/03/12 12:33:45;;;;;;;1.40;0.70;;;11.10;99.90;;;;;;5073624;28;20199;-74
2023/03/12 12:36:14;;;;;;;1.30;0.50;;;11.00;99.90;;;;;;5073277;28;20180;-74
2023/03/12 12:38:43;;;;;;;1.23;1.00;;;10.90;99.90;;;;;;5073159;28;20545;-74
2023/03/12 12:41:16;;;;;;;1.13;0.80;;;10.80;99.90;;;;;;5073457;28;20212;-74
2023/03/12 12:43:47;;;;;;;2.47;0.80;;;10.80;99.90;;;;;;5073704;28;20643;-75
2023/03/12 12:46:17;;;;;;;3.30;0.82;;;10.70;99.90;;;;;;5073696;28;20207;-75
2023/03/12 12:48:48;;;;;;;0.80;0.50;;;10.60;99.90;;;;;;5072852;28;20690;-76
2023/03/12 12:51:16;;;;;;;1.33;0.57;;;10.50;99.90;;;;;;5073462;28;20185;-75
2023/03/12 12:53:51;;;;;;;0.52;0.52;;;10.50;99.90;;;;;;5073248;28;20203;-75
2023/03/12 12:56:25;;;;;;;0.77;0.77;;;10.50;99.90;;;;;;5073454;28;20184;-76
2023/03/12 12:59:08;;;;;;;1.55;0.52;;;10.60;99.90;;;;;;5073360;28;20355;-76
2023/03/12 13:01:37;;;;;;;0.95;0.70;;;10.70;99.90;;;;;;5073305;28;20184;-76
2023/03/12 13:04:09;;;;;;;0.93;0.70;;;10.80;99.90;;;;;;5073376;28;20658;-73
2023/03/12 13:07:01;;;;;;;0.50;0.50;;;10.90;99.90;;;;;;5073722;28;20188;-75
2023/03/12 13:09:40;;;;;;;0.80;0.75;;;11.10;99.90;;;;;;5073094;28;20224;-76
2023/03/12 13:12:18;;;;;;;2.47;1.10;;;11.10;99.90;;;;;;5072966;28;20239;-75
2023/03/12 13:14:46;;;;;;;2.75;1.02;;;11.20;99.90;;;;;;5072648;28;20272;-75
2023/03/12 13:17:28;;;;;;;1.63;0.63;;;11.20;99.90;;;;;;5073013;28;20207;-76
2023/03/12 13:20:16;;;;;;;0.75;0.60;;;11.10;99.90;;;;;;5072581;28;20699;-76
2023/03/12 13:22:59;;;;;;;1.52;0.70;;;11.10;99.90;;;;;;5073179;28;20199;-76
2023/03/12 13:25:39;;;;;;;0.50;0.50;;;11.10;99.90;;;;;;5073910;28;20233;-75
2023/03/12 13:28:34;;;;;;;2.30;0.95;;;11.10;99.90;;;;;;5073038;28;20264;-76
2023/03/12 13:31:03;;;;;;;0.75;0.60;;;11.20;99.90;;;;;;5073702;28;20275;-74
2023/03/12 13:33:51;;;;;;;0.75;0.60;;;11.20;99.90;;;;;;5073322;28;20200;-74
2023/03/12 13:36:24;;;;;;;0.98;0.68;;;11.20;99.90;;;;;;5069935;28;20641;-74
2023/03/12 13:38:59;;;;;;;2.05;0.98;;;11.10;99.90;;;;;;5074318;28;20235;-74
2023/03/12 13:41:35;;;;;;;2.72;0.77;;;11.10;99.90;;;;;;5076931;28;20196;-73
2023/03/12 13:44:30;;;;;;;4.07;2.13;;;11.10;99.90;;;;;;5075423;28;20659;-74
2023/03/12 13:47:02;;;;;;;3.47;2.10;;;11.10;99.90;;;;;;5073257;28;20195;-74
2023/03/12 13:49:36;;;;;;;1.88;1.48;;;11.00;99.90;;;;;;5076001;28;20231;-73
2023/03/12 13:52:17;;;;;;;2.60;1.20;;;11.10;99.90;;;;;;5073117;28;20203;-74
2023/03/12 13:54:47;;;;;;;0.82;0.82;;;11.00;99.90;;;;;;5075528;28;20204;-74
2023/03/12 13:57:35;;;;;;;1.00;0.90;;;11.10;99.90;;;;;;5074122;28;20200;-73
2023/03/12 14:00:11;;;;;;;0.80;0.80;;;11.20;99.90;;;;;;5073559;28;20231;-73
2023/03/12 14:02:44;;;;;;;1.65;0.95;;;11.20;99.90;;;;;;5076705;28;20192;-73
2023/03/12 14:05:15;;;;;;;1.13;0.80;;;11.30;99.90;;;;;;5077510;28;20181;-75
2023/03/12 14:08:10;;;;;;;0.70;0.70;;;11.20;99.90;;;;;;5078575;28;20188;-75
2023/03/12 14:10:49;;;;;;;0.60;0.60;;;11.20;99.90;;;;;;5077915;28;20200;-75
2023/03/12 14:13:31;;;;;;;1.90;0.80;;;11.20;99.90;;;;;;5077814;28;20215;-74
2023/03/12 14:16:05;;;;;;;1.20;0.70;;;11.20;99.90;;;;;;5076525;28;20204;-75
2023/03/12 14:18:35;;;;;;;0.85;0.63;;;11.20;99.90;;;;;;5075869;28;20231;-75
2023/03/12 14:21:07;;;;;;;0.70;0.60;;;11.20;99.90;;;;;;5075803;28;20662;-75
2023/03/12 14:23:48;;;;;;;0.73;0.73;;;11.30;99.90;;;;;;5076255;28;20184;-75
2023/03/12 14:26:23;;;;;;;2.28;1.00;;;11.20;99.90;;;;;;5076578;28;20180;-75
2023/03/12 14:29:04;;;;;;;0.90;0.80;;;11.20;99.90;;;;;;5075548;28;20216;-75
2023/03/12 14:31:39;;;;;;;0.85;0.85;;;11.20;99.90;;;;;;5077948;28;20200;-75
2023/03/12 14:34:13;;;;;;;2.13;0.90;;;11.10;99.90;;;;;;5079936;28;20195;-75
2023/03/12 14:36:58;;;;;;;1.70;0.60;;;11.10;99.90;;;;;;5077912;28;20177;-75
2023/03/12 14:39:36;;;;;;;0.82;0.70;;;10.90;99.90;;;;;;5079216;28;20220;-75
2023/03/12 14:42:05;;;;;;;2.72;1.10;;;11.00;99.90;;;;;;5081099;28;20184;-76
2023/03/12 14:44:35;;;;;;;1.23;0.73;;;11.00;99.90;;;;;;5079697;28;20272;-74
2023/03/12 14:47:13;;;;;;;1.45;0.80;;;11.00;99.90;;;;;;5078348;28;20204;-75
2023/03/12 14:49:46;;;;;;;0.98;0.80;;;10.90;99.90;;;;;;5076248;28;20755;-74
2023/03/12 14:52:23;;;;;;;1.08;0.82;;;11.00;99.90;;;;;;5078543;28;20260;-74
2023/03/12 14:54:56;;;;;;;2.63;1.15;;;10.90;99.90;;;;;;5076985;28;20231;-74
2023/03/12 14:57:24;;;;;;;1.38;0.93;;;10.90;99.90;;;;;;5079392;28;20219;-75
2023/03/12 14:59:56;;;;;;;1.35;0.80;;;11.00;99.90;;;;;;5078639;28;20228;-74
2023/03/12 15:02:35;;;;;;;0.75;0.75;;;11.00;99.90;;;;;;5078794;28;20249;-75
2023/03/12 15:05:04;;;;;;;2.35;0.88;;;10.90;99.90;;;;;;5077599;28;20184;-75
2023/03/12 15:07:43;;;;;;;3.92;1.00;;;11.00;99.90;;;;;;5078509;28;20200;-75
2023/03/12 15:10:20;;;;;;;1.88;1.08;;;10.90;99.90;;;;;;5077490;28;20220;-75
2023/03/12 15:13:00;;;;;;;2.38;1.25;;;10.90;99.90;;;;;;5075887;28;20287;-75
2023/03/12 15:15:36;;;;;;;3.55;1.00;;;10.80;99.90;;;;;;5077460;28;20299;-73
2023/03/12 15:18:08;;;;;;;2.65;0.88;;;10.80;99.90;;;;;;5077380;28;20188;-73
2023/03/12 15:20:36;;;;;;;1.10;0.93;;;10.70;99.90;;;;;;5076821;28;20599;-72
2023/03/12 15:23:06;;;;;;;1.35;0.88;;;10.70;99.90;;;;;;5077801;28;20203;-72
2023/03/12 15:25:34;;;;;;;2.17;1.00;;;10.70;99.90;;;;;;5078526;28;20208;-72
2023/03/12 15:28:08;;;;;;;0.95;0.85;;;10.60;99.90;;;;;;5075412;28;20184;-72
2023/03/12 15:30:36;;;;;;;1.42;1.00;;;10.60;99.90;;;;;;5074664;28;20667;-72
2023/03/12 15:33:10;;;;;;;2.85;1.30;;;10.60;99.90;;;;;;5075789;28;20203;-72
2023/03/12 15:35:40;;;;;;;0.90;0.88;;;10.60;99.90;;;;;;5074638;28;20207;-72
2023/03/12 15:38:14;;;;;;;1.65;0.82;;;10.60;99.90;;;;;;5077037;28;20743;-73
2023/03/12 15:40:41;;;;;;;2.15;1.42;;;10.50;99.90;;;;;;5075557;28;20191;-71
2023/03/12 15:43:17;;;;;;;0.98;0.95;;;10.50;99.90;;;;;;5076280;28;20204;-71
2023/03/12 15:45:44;;;;;;;4.47;1.13;;;10.40;99.90;;;;;;5078418;28;20180;-71
2023/03/12 15:48:23;;;;;;;1.13;0.93;;;10.30;99.90;;;;;;5074953;28;20211;-72
2023/03/12 15:50:50;;;;;;;2.85;1.10;;;10.30;99.90;;;;;;5074105;28;20199;-74
2023/03/12 15:53:29;;;;;;;1.15;0.80;;;10.20;99.90;;;;;;5074831;28;20200;-72
2023/03/12 15:56:01;;;;;;;2.67;1.10;;;10.10;99.90;;;;;;5074411;28;20219;-73
2023/03/12 15:58:30;;;;;;;2.03;1.27;;;10.10;99.90;;;;;;5073787;28;20905;-74
2023/03/12 16:01:07;;;;;;;1.70;1.02;;;10.00;99.90;;;;;;5074342;28;20550;-75
2023/03/12 16:03:36;;;;;;;3.65;1.10;;;10.00;99.90;;;;;;5074726;28;20191;-74
2023/03/12 16:06:03;;;;;;;1.15;0.80;;;9.90;99.90;;;;;;5073955;28;20712;-73
2023/03/12 16:08:36;;;;;;;2.15;1.17;;;9.80;99.90;;;;;;5074006;28;20231;-74
2023/03/12 16:11:03;;;;;;;2.15;1.15;;;9.80;99.90;;;;;;5073988;28;20188;-74
2023/03/12 16:13:32;;;;;;;1.73;1.00;;;9.70;99.90;;;;;;5073720;28;20215;-74
2023/03/12 16:15:59;;;;;;;1.35;1.13;;;9.70;99.90;;;;;;5073464;28;20560;-73
2023/03/12 16:18:26;;;;;;;3.80;1.35;;;9.60;99.90;;;;;;5074425;28;20297;-74
2023/03/12 16:20:54;;;;;;;2.03;1.00;;;9.60;99.90;;;;;;5073787;28;20200;-74
2023/03/12 16:23:21;;;;;;;4.50;1.35;;;9.60;99.90;;;;;;5073270;28;20203;-74
2023/03/12 16:25:51;;;;;;;1.83;0.90;;;9.60;99.90;;;;;;5074320;28;20353;-73
2023/03/12 16:28:19;;;;;;;1.55;0.90;;;9.60;99.90;;;;;;5073350;28;20594;-74
2023/03/12 16:30:47;;;;;;;1.92;1.23;;;9.60;99.90;;;;;;5073937;28;20204;-74
2023/03/12 16:33:15;;;;;;;3.67;1.55;;;9.60;99.90;;;;;;5073239;28;20200;-73
2023/03/12 16:35:42;;;;;;;1.50;1.40;;;9.60;99.90;;;;;;5073696;28;20216;-73
2023/03/12 16:38:10;;;;;;;2.38;1.27;;;9.50;99.90;;;;;;5073709;28;20207;-73
2023/03/12 16:40:39;;;;;;;1.83;1.10;;;9.50;99.90;;;;;;5073644;28;20199;-74
2023/03/12 16:43:13;;;;;;;2.17;1.08;;;9.40;99.90;;;;;;5073487;28;20204;-73
2023/03/12 16:45:43;;;;;;;1.42;1.33;;;9.40;99.90;;;;;;5073790;28;20184;-72
2023/03/12 16:48:14;;;;;;;6.32;1.27;;;9.30;99.90;;;;;;5073394;28;20600;-74
2023/03/12 16:50:41;;;;;;;3.22;1.00;;;9.40;99.90;;;;;;5073722;28;20257;-74
2023/03/12 16:53:11;;;;;;;1.30;1.20;;;9.20;99.90;;;;;;5073508;28;20567;-74
2023/03/12 16:55:44;;;;;;;2.47;0.90;;;9.10;99.90;;;;;;5073414;28;20219;-74
2023/03/12 16:58:14;;;;;;;2.60;1.42;;;9.00;99.90;;;;;;5073202;28;20650;-74
2023/03/12 17:00:42;;;;;;;1.85;1.10;;;8.90;99.90;;;;;;5073842;28;20207;-74
2023/03/12 17:03:12;;;;;;;1.88;1.00;;;8.90;99.90;;;;;;5073118;28;20595;-74
2023/03/12 17:05:39;;;;;;;1.70;1.10;;;8.80;99.90;;;;;;5073299;28;20180;-74
2023/03/12 17:08:06;;;;;;;1.83;1.08;;;8.70;99.90;;;;;;5072854;28;20574;-74
2023/03/12 17:10:34;;;;;;;1.52;1.10;;;8.70;99.90;;;;;;5073170;28;20203;-75
2023/03/12 17:13:00;;;;;;;2.30;0.90;;;8.60;99.90;;;;;;5073009;28;20215;-75
2023/03/12 17:15:29;;;;;;;1.13;0.75;;;8.60;99.90;;;;;;5072753;28;20551;-75
2023/03/12 17:17:58;;;;;;;1.20;0.95;;;8.50;99.90;;;;;;5072719;28;20663;-74
2023/03/12 17:20:25;;;;;;;1.30;1.00;;;8.50;99.90;;;;;;5073000;28;20199;-74
2023/03/12 17:22:52;;;;;;;1.63;0.98;;;8.40;99.90;;;;;;5072980;28;20566;-72
2023/03/12 17:25:22;;;;;;;1.83;1.50;;;8.30;99.90;;;;;;5073050;28;20200;-74
2023/03/12 17:27:50;;;;;;;1.67;1.55;;;8.30;99.90;;;;;;5072819;28;20207;-74
2023/03/12 17:30:17;;;;;;;1.55;1.25;;;8.20;99.90;;;;;;5073162;28;20224;-74
2023/03/12 17:32:44;;;;;;;1.02;0.90;;;8.10;99.90;;;;;;5072955;28;20222;-74
2023/03/12 17:35:11;;;;;;;1.00;1.00;;;8.00;99.90;;;;;;5074058;28;20200;-74
2023/03/12 17:37:37;;;;;;;2.05;1.30;;;7.90;99.90;;;;;;5077140;28;20254;-74
2023/03/12 17:40:07;;;;;;;1.05;0.90;;;7.80;99.90;;;;;;5076950;28;20253;-74
2023/03/12 17:42:34;;;;;;;1.95;1.00;;;7.70;99.90;;;;;;5076992;28;20200;-74
2023/03/12 17:45:03;;;;;;;1.20;1.10;;;7.60;99.90;;;;;;5076950;28;20282;-73
2023/03/12 17:47:29;;;;;;;0.85;0.82;;;7.60;99.90;;;;;;5076759;28;20607;-73
2023/03/12 17:49:56;;;;;;;3.03;1.10;;;7.50;99.90;;;;;;5076798;28;20281;-72
2023/03/12 17:52:23;;;;;;;1.77;1.52;;;7.40;99.90;;;;;;5076722;28;20200;-72
2023/03/12 17:54:50;;;;;;;1.65;1.25;;;7.40;99.90;;;;;;5076741;28;20204;-72
2023/03/12 17:57:16;;;;;;;2.25;1.13;;;7.30;99.90;;;;;;5076549;28;20249;-71
2023/03/12 17:59:43;;;;;;;0.90;0.90;;;7.30;99.90;;;;;;5076523;28;20224;-72
2023/03/12 18:02:13;;;;;;;1.25;1.10;;;7.20;99.90;;;;;;5076450;28;20207;-71
2023/03/12 18:04:39;;;;;;;2.60;1.02;;;7.10;99.90;;;;;;5076727;28;20208;-71
2023/03/12 18:07:06;;;;;;;1.23;1.10;;;7.10;99.90;;;;;;5076404;28;20203;-71
2023/03/12 18:09:33;;;;;;;1.85;1.20;;;7.00;99.90;;;;;;5096005;22;20213;-81
2023/03/12 18:12:00;;;;;;;1.35;1.15;;;6.90;99.90;;;;;;5060341;28;20197;-80
2023/03/12 18:14:26;;;;;;;1.48;1.38;;;6.80;99.90;;;;;;5058592;28;20212;-79
2023/03/12 18:16:53;;;;;;;1.92;1.58;;;6.70;99.90;;;;;;5059660;28;20220;-80
2023/03/12 18:19:22;;;;;;;3.67;1.80;;;6.60;99.90;;;;;;5058950;28;20223;-82
2023/03/12 18:21:50;;;;;;;2.33;1.90;;;6.60;99.90;;;;;;5064781;28;20200;-83
2023/03/12 18:24:16;;;;;;;2.33;1.85;;;6.50;99.90;;;;;;5063709;28;20201;-81
2023/03/12 18:26:44;;;;;;;4.05;2.40;;;6.50;99.90;;;;;;5062499;28;20668;-81
2023/03/12 18:29:10;;;;;;;3.92;2.75;;;6.30;99.90;;;;;;5065644;28;20201;-81
2023/03/12 18:31:37;;;;;;;2.10;2.00;;;6.30;99.90;;;;;;5064853;28;20211;-81
2023/03/12 18:34:04;;;;;;;3.25;2.10;;;6.30;99.90;;;;;;5060572;28;20204;-79
2023/03/12 18:36:33;;;;;;;2.00;1.80;;;6.20;99.90;;;;;;5059684;28;20300;-82
2023/03/12 18:39:03;;;;;;;1.90;1.80;;;6.10;99.90;;;;;;5063091;28;20201;-78
2023/03/12 18:41:31;;;;;;;2.53;2.33;;;6.00;99.90;;;;;;5061295;28;20207;-78
2023/03/12 18:43:58;;;;;;;2.10;1.90;;;5.90;99.90;;;;;;5061086;28;20570;-79
2023/03/12 18:46:25;;;;;;;1.90;1.80;;;5.80;99.90;;;;;;5057890;28;20535;-78
2023/03/12 18:48:52;;;;;;;4.65;1.90;;;5.80;99.90;;;;;;5057491;28;20200;-78
2023/03/12 18:51:19;;;;;;;2.00;1.83;;;5.80;99.90;;;;;;5057801;28;20225;-77
2023/03/12 18:53:48;;;;;;;2.30;2.10;;;5.70;99.90;;;;;;5057171;28;20201;-77
2023/03/12 18:56:15;;;;;;;2.72;2.17;;;5.60;99.90;;;;;;5060900;28;20216;-78
2023/03/12 18:58:41;;;;;;;4.25;2.67;;;5.60;99.90;;;;;;5060420;28;20207;-80
2023/03/12 19:01:09;;;;;;;3.50;2.45;;;5.50;99.90;;;;;;5057900;28;20225;-78
2023/03/12 19:03:36;;;;;;;2.15;2.05;;;5.50;99.90;;;;;;5057672;28;20211;-78
2023/03/12 19:06:04;;;;;;;3.67;3.13;;;5.40;99.90;;;;;;5058063;28;20196;-77
2023/03/12 19:08:31;;;;;;;4.00;2.80;;;5.30;99.90;;;;;;5058695;28;20208;-77